Time;durP1;ratioP1;P1;durP2;ratioP2;P2;SDS_P1;SDS_P2;PMS_P1;PMS_P2;Temp;Humidity;BMP_temperature;BMP_pressure;BME280_temperature;BME280_humidity;BME280_pressure;Samples;Min_cycle;Max_cycle;Signal;HPM_P1;HPM_P2
2021/10/06 00:00:51;;;;;;;10.10;3.95;;;;;;;5.61;79.21;93770.11;1783433;78;21072;-86
2021/10/06 00:03:21;;;;;;;10.13;5.50;;;;;;;5.65;78.86;93770.95;1782859;78;21511;-87
2021/10/06 00:05:49;;;;;;;5.70;4.53;;;;;;;5.66;78.66;93775.78;1786327;78;21862;-86
2021/10/06 00:08:16;;;;;;;11.35;3.77;;;;;;;5.60;78.75;93772.56;1816073;77;20998;-87
2021/10/06 00:10:42;;;;;;;8.23;5.03;;;;;;;5.49;79.34;93769.67;1784713;78;21089;-87
2021/10/06 00:13:09;;;;;;;10.38;4.47;;;;;;;5.41;79.32;93765.81;1783306;78;21097;-87
2021/10/06 00:15:36;;;;;;;6.97;4.47;;;;;;;5.39;79.37;93766.18;1770275;78;21176;-86
2021/10/06 00:18:03;;;;;;;5.67;3.87;;;;;;;5.40;79.37;93754.83;1739880;79;21589;-86
2021/10/06 00:20:30;;;;;;;9.88;4.25;;;;;;;5.45;79.29;93757.23;1770132;78;21223;-86
2021/10/06 00:22:57;;;;;;;5.60;3.50;;;;;;;5.48;79.43;93760.00;1808406;78;20970;-86
2021/10/06 00:25:23;;;;;;;6.08;4.62;;;;;;;5.47;79.79;93764.41;1772211;78;21030;-86
2021/10/06 00:27:50;;;;;;;6.58;4.60;;;;;;;5.36;80.07;93765.53;1779604;79;21199;-85
2021/10/06 00:30:16;;;;;;;5.40;4.42;;;;;;;5.28;80.49;93770.56;1791444;78;21295;-86
2021/10/06 00:32:43;;;;;;;4.15;3.45;;;;;;;5.23;80.58;93770.85;1803625;77;21081;-85
2021/10/06 00:35:10;;;;;;;5.58;3.90;;;;;;;5.16;80.48;93764.73;1762486;80;21504;-86
2021/10/06 00:37:37;;;;;;;13.43;4.55;;;;;;;5.14;80.49;93764.86;1848550;76;21052;-87
2021/10/06 00:40:05;;;;;;;11.83;5.20;;;;;;;5.14;80.44;93758.89;1826219;75;21772;-88
2021/10/06 00:42:33;;;;;;;7.03;3.95;;;;;;;5.15;80.25;93757.75;1832778;76;21029;-86
2021/10/06 00:44:59;;;;;;;5.87;4.70;;;;;;;5.15;79.98;93759.10;1837193;76;21029;-86
2021/10/06 00:47:26;;;;;;;6.62;4.05;;;;;;;5.11;80.03;93753.66;1802689;77;21025;-86
2021/10/06 00:49:52;;;;;;;6.33;3.72;;;;;;;5.13;80.38;93760.03;1812024;77;21095;-86
2021/10/06 00:52:19;;;;;;;5.50;4.58;;;;;;;5.15;80.52;93752.94;1793228;77;21167;-85
2021/10/06 00:54:45;;;;;;;6.90;4.30;;;;;;;5.08;80.34;93752.23;1804746;77;21050;-86
2021/10/06 00:57:12;;;;;;;7.15;3.75;;;;;;;5.02;80.22;93751.71;1816031;76;21069;-87
2021/10/06 00:59:38;;;;;;;6.22;4.33;;;;;;;4.96;81.08;93751.76;1819965;76;21461;-87
2021/10/06 01:02:04;;;;;;;7.83;4.67;;;;;;;4.97;81.28;93745.26;1864252;76;21027;-87
2021/10/06 01:04:32;;;;;;;8.58;4.35;;;;;;;5.01;81.21;93743.99;1846552;75;21082;-86
2021/10/06 01:06:59;;;;;;;9.10;3.95;;;;;;;5.05;81.12;93742.93;1830524;75;21473;-86
2021/10/06 01:09:28;;;;;;;9.33;4.42;;;;;;;5.09;81.12;93747.83;1810512;76;21587;-85
2021/10/06 01:11:57;;;;;;;9.13;4.45;;;;;;;5.15;81.13;93748.89;1812584;77;21190;-87
2021/10/06 01:14:24;;;;;;;5.50;4.20;;;;;;;5.17;81.06;93742.59;1731473;80;21630;-85
2021/10/06 01:16:53;;;;;;;8.48;4.90;;;;;;;5.06;81.38;93743.14;1751091;79;21556;-85
2021/10/06 01:19:23;;;;;;;10.63;4.67;;;;;;;4.95;81.47;93735.38;1806865;77;21694;-86
2021/10/06 01:21:50;;;;;;;10.80;5.25;;;;;;;4.85;81.78;93735.91;1769662;78;21722;-85
2021/10/06 01:24:17;;;;;;;10.50;6.00;;;;;;;4.78;82.06;93739.82;1784213;78;21021;-85
2021/10/06 01:26:43;;;;;;;6.87;5.05;;;;;;;4.71;82.72;93730.23;1748072;80;21093;-85
2021/10/06 01:29:10;;;;;;;8.20;5.20;;;;;;;4.66;82.93;93733.17;1781772;79;21521;-84
2021/10/06 01:31:37;;;;;;;8.90;5.78;;;;;;;4.61;83.27;93733.66;1776106;78;20998;-85
2021/10/06 01:34:04;;;;;;;9.78;5.37;;;;;;;4.61;83.57;93734.23;1804387;77;21283;-87
2021/10/06 01:36:31;;;;;;;8.63;6.28;;;;;;;4.61;83.91;93733.66;1778076;79;21106;-85
2021/10/06 01:38:58;;;;;;;11.28;6.35;;;;;;;4.62;83.87;93727.70;1813380;77;21189;-84
2021/10/06 01:41:25;;;;;;;17.87;8.90;;;;;;;4.61;83.99;93730.96;1810228;77;21183;-86
2021/10/06 01:43:51;;;;;;;10.43;5.15;;;;;;;4.62;83.95;93723.66;1816495;77;21020;-85
2021/10/06 01:46:17;;;;;;;11.38;4.97;;;;;;;4.61;83.93;93730.19;1775096;78;21644;-86
2021/10/06 01:48:44;;;;;;;7.70;5.35;;;;;;;4.58;84.02;93721.45;1829090;77;21074;-86
2021/10/06 01:51:10;;;;;;;10.23;6.45;;;;;;;4.53;84.12;93731.93;1800403;78;21097;-87
2021/10/06 01:53:38;;;;;;;;;;;;;;;;;;;;;
2021/10/06 01:56:06;;;;;;;11.40;5.92;;;;;;;4.28;84.36;93729.97;1785205;78;21060;-86
2021/10/06 01:58:32;;;;;;;7.53;5.10;;;;;;;4.20;84.06;93735.53;1772482;78;21120;-86
2021/10/06 02:01:00;;;;;;;6.72;4.22;;;;;;;4.12;84.55;93731.32;1797591;78;21143;-86
2021/10/06 02:03:27;;;;;;;11.28;4.33;;;;;;;4.19;84.95;93728.59;1802321;78;21109;-86
2021/10/06 02:05:53;;;;;;;8.48;4.37;;;;;;;4.31;84.70;93733.89;1789608;78;21116;-86
2021/10/06 02:08:20;;;;;;;7.42;4.28;;;;;;;4.50;84.24;93734.53;1804107;78;21076;-87
2021/10/06 02:10:47;;;;;;;6.37;4.12;;;;;;;4.61;83.39;93735.57;1837556;76;20957;-87
2021/10/06 02:13:13;;;;;;;6.80;4.30;;;;;;;4.56;84.05;93731.80;1810413;78;21081;-87
2021/10/06 02:15:40;;;;;;;10.25;4.58;;;;;;;4.46;84.36;93737.14;1796868;78;21042;-86
2021/10/06 02:18:08;;;;;;;7.08;4.50;;;;;;;4.35;85.05;93729.38;1820702;77;21239;-87
2021/10/06 02:20:37;;;;;;;6.40;4.20;;;;;;;4.26;85.47;93730.13;1821855;78;20996;-86
2021/10/06 02:23:03;;;;;;;7.20;4.08;;;;;;;4.20;86.00;93725.55;1812381;78;21104;-85
2021/10/06 02:25:30;;;;;;;7.78;4.95;;;;;;;4.19;86.26;93733.98;1823379;76;22162;-87
2021/10/06 02:27:56;;;;;;;14.53;3.98;;;;;;;4.13;86.86;93728.06;1797191;78;21041;-86
2021/10/06 02:30:23;;;;;;;8.25;4.55;;;;;;;4.01;87.29;93728.14;1776399;78;21466;-87
2021/10/06 02:32:49;;;;;;;6.58;3.75;;;;;;;3.95;87.38;93742.97;1715591;81;21617;-86
2021/10/06 02:35:16;;;;;;;6.03;3.90;;;;;;;3.89;86.94;93737.84;1813751;77;21037;-88
2021/10/06 02:37:42;;;;;;;5.85;4.22;;;;;;;3.88;86.79;93739.55;1831546;77;21543;-86
2021/10/06 02:40:16;;;;;;;9.23;4.58;;;;;;;3.80;86.82;93737.23;1825300;77;21079;-86
2021/10/06 02:42:44;;;;;;;5.97;4.50;;;;;;;3.76;87.26;93740.40;1757805;79;21970;-85
2021/10/06 02:45:12;;;;;;;11.18;4.62;;;;;;;3.78;87.76;93748.11;1771278;78;21058;-85
2021/10/06 02:47:39;;;;;;;5.47;4.53;;;;;;;3.82;87.91;93745.73;1818544;77;21004;-85
2021/10/06 02:50:07;;;;;;;7.10;4.47;;;;;;;3.83;88.00;93747.28;1828388;77;21121;-86
2021/10/06 02:52:35;;;;;;;8.25;5.40;;;;;;;3.88;87.68;93745.70;1758929;77;21049;-86
2021/10/06 02:55:01;;;;;;;6.45;4.67;;;;;;;3.90;87.55;93743.44;1737628;81;21094;-87
2021/10/06 02:57:28;;;;;;;8.55;4.75;;;;;;;3.94;87.53;93744.10;1752896;78;21061;-86
2021/10/06 02:59:55;;;;;;;8.78;3.85;;;;;;;3.95;87.18;93743.77;1831502;77;21065;-86
2021/10/06 03:02:21;;;;;;;5.80;4.20;;;;;;;3.96;86.91;93743.20;1755625;78;21125;-86
2021/10/06 03:04:48;;;;;;;13.48;4.47;;;;;;;3.86;86.77;93741.79;1806696;77;21038;-86
2021/10/06 03:07:14;;;;;;;6.08;3.77;;;;;;;3.73;87.40;93745.12;1809029;77;21123;-86
2021/10/06 03:09:41;;;;;;;7.50;4.72;;;;;;;3.67;87.74;93745.70;1770350;77;21030;-85
2021/10/06 03:12:07;;;;;;;7.80;4.45;;;;;;;3.64;88.07;93737.74;1786353;78;21045;-86
2021/10/06 03:14:34;;;;;;;5.67;4.40;;;;;;;3.63;88.23;93749.63;1813341;78;21131;-85
2021/10/06 03:17:00;;;;;;;7.83;3.58;;;;;;;3.61;88.27;93748.64;1763183;79;21047;-85
2021/10/06 03:19:27;;;;;;;8.13;4.25;;;;;;;3.60;87.93;93752.44;1759515;78;21081;-85
2021/10/06 03:21:53;;;;;;;8.25;3.92;;;;;;;3.52;87.75;93745.88;1807492;77;21348;-87
2021/10/06 03:24:40;;;;;;;6.87;3.90;;;;;;;3.48;88.24;93749.80;1810206;78;21063;-85
2021/10/06 03:27:06;;;;;;;7.30;3.87;;;;;;;3.41;88.80;93751.72;1829580;77;21084;-84
2021/10/06 03:29:33;;;;;;;8.50;4.15;;;;;;;3.36;89.15;93745.82;1779490;78;21616;-84
2021/10/06 03:32:00;;;;;;;4.95;4.22;;;;;;;3.35;89.45;93751.77;1768228;78;21119;-83
2021/10/06 03:34:26;;;;;;;10.55;4.87;;;;;;;3.36;89.16;93747.94;1755898;79;22257;-85
2021/10/06 03:36:53;;;;;;;10.38;4.37;;;;;;;3.34;89.05;93748.05;1791851;78;21549;-85
2021/10/06 03:39:19;;;;;;;6.17;4.58;;;;;;;3.31;88.72;93743.35;1796564;77;21112;-85
2021/10/06 03:41:46;;;;;;;6.25;4.20;;;;;;;3.26;89.07;93747.64;1827810;76;21191;-85
2021/10/06 03:44:12;;;;;;;6.35;3.90;;;;;;;3.20;89.41;93743.61;1771613;77;21843;-84
2021/10/06 03:46:38;;;;;;;8.98;5.42;;;;;;;3.15;89.89;93748.67;1810402;78;21111;-86
2021/10/06 03:49:08;;;;;;;7.08;5.08;;;;;;;3.16;90.41;93744.88;1813588;78;21040;-85
2021/10/06 03:51:38;;;;;;;8.95;5.12;;;;;;;3.22;90.45;93744.84;1832430;76;21239;-83
2021/10/06 03:54:10;;;;;;;6.97;5.37;;;;;;;3.29;90.35;93745.05;1868554;76;21049;-83
2021/10/06 03:56:38;;;;;;;9.83;5.65;;;;;;;3.32;90.02;93741.69;1818854;76;21137;-83
2021/10/06 03:59:04;;;;;;;8.65;3.87;;;;;;;3.32;89.14;93748.41;1760974;80;21248;-85
2021/10/06 04:01:31;;;;;;;8.63;4.40;;;;;;;3.32;89.14;93748.41;1819557;76;21041;-84
2021/10/06 04:04:01;;;;;;;6.65;4.47;;;;;;;3.29;88.86;93746.95;1820414;77;21065;-85
2021/10/06 04:06:28;;;;;;;6.28;3.95;;;;;;;3.12;88.34;93752.03;1828449;77;21082;-87
2021/10/06 04:08:57;;;;;;;7.45;4.70;;;;;;;2.87;88.83;93744.59;1764538;80;21094;-83
2021/10/06 04:11:27;;;;;;;10.75;5.72;;;;;;;2.71;89.53;93743.16;1801071;77;21056;-85
2021/10/06 04:13:56;;;;;;;7.90;5.42;;;;;;;2.71;90.42;93745.04;1800069;77;21079;-84
2021/10/06 04:16:27;;;;;;;7.60;4.10;;;;;;;2.71;90.42;93745.04;1826589;77;20985;-83
2021/10/06 04:18:55;;;;;;;7.72;5.78;;;;;;;2.70;90.24;93745.60;1833591;75;21547;-84
2021/10/06 04:21:22;;;;;;;6.25;3.90;;;;;;;2.68;90.01;93744.61;1818855;77;21121;-84
2021/10/06 04:23:49;;;;;;;4.65;3.35;;;;;;;2.65;89.83;93732.41;1788805;77;21090;-86
2021/10/06 04:26:15;;;;;;;7.12;4.17;;;;;;;2.62;89.68;93741.14;1807193;76;21028;-86
2021/10/06 04:28:41;;;;;;;7.67;3.90;;;;;;;2.56;89.88;93741.94;1794217;76;21114;-86
2021/10/06 04:31:08;;;;;;;7.80;4.78;;;;;;;2.50;90.54;93739.81;1799605;77;21113;-86
2021/10/06 04:33:35;;;;;;;4.53;3.98;;;;;;;2.47;90.74;93735.11;1812946;78;21100;-85
2021/10/06 04:36:01;;;;;;;9.15;4.53;;;;;;;2.49;90.81;93736.91;1771174;78;21091;-86
2021/10/06 04:38:27;;;;;;;5.92;3.65;;;;;;;2.41;90.64;93730.53;1759151;79;20984;-86
2021/10/06 04:41:19;;;;;;;5.78;4.40;;;;;;;2.41;90.64;93730.53;1753233;80;21043;-83
2021/10/06 04:43:37;;;;;;;7.95;4.37;;;;;;;2.35;90.48;93737.23;1728529;79;21093;-86
2021/10/06 04:46:06;;;;;;;9.88;4.40;;;;;;;2.28;90.92;93736.44;1714721;81;21561;-86
2021/10/06 04:51:04;;;;;;;6.95;4.17;;;;;;;2.22;91.01;93735.11;1830592;77;20979;-86
2021/10/06 04:53:30;;;;;;;4.92;3.62;;;;;;;2.21;91.08;93737.55;1831082;77;21016;-85
2021/10/06 04:55:57;;;;;;;8.95;4.92;;;;;;;2.23;91.54;93738.58;1838583;75;21010;-86
2021/10/06 04:58:24;;;;;;;5.60;3.75;;;;;;;2.25;91.82;93727.72;1837067;77;21117;-87
2021/10/06 05:00:51;;;;;;;10.65;4.00;;;;;;;2.28;91.68;93739.69;1825349;76;21061;-87
2021/10/06 05:03:17;;;;;;;7.35;4.35;;;;;;;2.28;91.64;93741.03;1846424;76;21041;-84
2021/10/06 05:05:44;;;;;;;4.62;3.85;;;;;;;2.33;91.88;93727.38;1826015;75;21010;-84
2021/10/06 05:08:11;;;;;;;5.67;4.22;;;;;;;2.33;91.88;93727.38;1836218;76;21021;-87
2021/10/06 05:10:38;;;;;;;7.25;3.42;;;;;;;2.38;91.61;93731.98;1806985;77;21137;-85
2021/10/06 05:13:07;;;;;;;3.58;3.27;;;;;;;2.41;91.32;93729.97;1738480;77;21176;-85
2021/10/06 05:15:35;;;;;;;14.00;6.33;;;;;;;2.66;92.50;93734.75;1811627;77;21064;-86
2021/10/06 05:18:02;;;;;;;11.33;6.85;;;;;;;3.19;93.06;93737.45;1842593;75;21018;-85
2021/10/06 05:20:28;;;;;;;11.15;6.80;;;;;;;3.89;91.80;93729.00;1836338;75;21029;-84
2021/10/06 05:22:55;;;;;;;8.23;5.47;;;;;;;4.67;89.94;93734.75;1800866;77;21117;-84
2021/10/06 05:25:23;;;;;;;8.20;4.85;;;;;;;5.45;87.25;93732.38;1752213;79;21643;-85
2021/10/06 05:27:50;;;;;;;6.35;4.92;;;;;;;6.14;83.46;93736.63;1715051;81;21092;-84
2021/10/06 05:30:17;;;;;;;8.83;5.35;;;;;;;6.78;81.69;93739.61;1757023;78;21595;-85
2021/10/06 05:32:46;;;;;;;10.32;5.28;;;;;;;7.40;79.37;93737.97;1819260;75;21066;-85
2021/10/06 05:35:12;;;;;;;5.95;4.80;;;;;;;7.95;76.08;93732.25;1812165;77;21162;-84
2021/10/06 05:37:38;;;;;;;7.70;5.00;;;;;;;8.24;74.01;93736.05;1829970;76;21699;-84
2021/10/06 05:40:06;;;;;;;7.30;4.67;;;;;;;8.38;72.33;93729.22;1827283;76;21616;-85
2021/10/06 05:42:33;;;;;;;13.38;6.08;;;;;;;8.53;71.85;93724.12;1836751;76;21037;-84
2021/10/06 05:44:59;;;;;;;6.25;4.72;;;;;;;8.82;69.95;93722.43;1840495;75;21033;-85
2021/10/06 05:47:26;;;;;;;4.40;3.40;;;;;;;9.14;69.25;93720.50;1840529;75;21160;-86
2021/10/06 05:49:54;;;;;;;4.60;3.17;;;;;;;9.63;66.73;93722.73;1790096;77;21073;-85
2021/10/06 05:52:21;;;;;;;5.35;2.92;;;;;;;10.07;65.57;93721.70;1782366;78;21107;-85
2021/10/06 05:54:48;;;;;;;4.45;3.77;;;;;;;10.45;63.99;93729.80;1753408;79;21089;-85
2021/10/06 05:57:15;;;;;;;10.58;4.72;;;;;;;10.61;60.63;93733.50;1774014;78;21122;-86
2021/10/06 05:59:42;;;;;;;6.50;4.60;;;;;;;10.50;61.34;93729.22;1805466;77;21112;-84
2021/10/06 06:02:09;;;;;;;4.87;3.72;;;;;;;10.54;61.28;93738.92;1810268;75;21057;-85
2021/10/06 06:04:36;;;;;;;4.67;3.80;;;;;;;10.58;61.45;93736.98;1773077;77;21059;-87
2021/10/06 06:07:03;;;;;;;4.03;3.62;;;;;;;10.53;62.23;93734.66;1823356;76;21088;-86
2021/10/06 06:09:29;;;;;;;7.28;4.80;;;;;;;10.53;62.49;93736.58;1771578;78;21053;-87
2021/10/06 06:12:00;;;;;;;7.40;4.62;;;;;;;10.60;62.19;93740.08;1775003;78;21105;-85
2021/10/06 06:14:29;;;;;;;7.05;4.85;;;;;;;10.72;62.34;93734.06;1767218;78;21092;-84
2021/10/06 06:16:56;;;;;;;15.50;5.42;;;;;;;10.84;61.21;93738.56;1773286;76;21123;-84
2021/10/06 06:19:23;;;;;;;6.55;4.75;;;;;;;10.84;60.80;93744.59;1831930;75;21040;-85
2021/10/06 06:21:49;;;;;;;7.08;4.33;;;;;;;10.60;59.30;93752.91;1780070;78;21077;-87
2021/10/06 06:24:16;;;;;;;4.70;4.20;;;;;;;10.40;59.92;93755.20;1841731;75;21123;-84
2021/10/06 06:26:43;;;;;;;9.33;4.80;;;;;;;10.45;59.68;93758.89;1813302;75;21022;-87
2021/10/06 06:29:09;;;;;;;7.03;4.55;;;;;;;10.45;57.72;93758.34;1736419;80;21041;-87
2021/10/06 06:31:37;;;;;;;7.78;4.50;;;;;;;10.13;59.06;93758.22;1739753;80;21716;-89
2021/10/06 06:34:04;;;;;;;5.40;4.05;;;;;;;9.94;59.48;93754.47;1754990;79;21010;-87
2021/10/06 06:36:30;;;;;;;5.87;4.40;;;;;;;9.73;59.15;93754.56;1834548;75;21927;-87
2021/10/06 06:39:00;;;;;;;6.60;4.00;;;;;;;9.45;58.42;93749.78;1779479;77;21041;-88
2021/10/06 06:41:26;;;;;;;4.78;3.98;;;;;;;9.17;59.10;93750.95;1824722;75;21098;-88
2021/10/06 06:43:53;;;;;;;5.72;3.92;;;;;;;8.93;60.00;93746.92;1822970;77;21147;-88
2021/10/06 06:46:19;;;;;;;5.72;4.42;;;;;;;8.79;61.63;93736.73;1785898;78;21042;-87
2021/10/06 06:48:45;;;;;;;6.87;4.30;;;;;;;8.57;61.17;93738.48;1799948;77;21131;-88
2021/10/06 06:51:12;;;;;;;6.25;4.50;;;;;;;8.26;62.04;93729.66;1822814;75;21080;-88
2021/10/06 06:53:39;;;;;;;7.87;4.47;;;;;;;8.10;63.86;93743.25;1805850;76;21021;-87
2021/10/06 06:56:05;;;;;;;10.28;4.87;;;;;;;7.96;63.79;93735.73;1762292;78;21536;-88
2021/10/06 06:58:32;;;;;;;7.80;4.47;;;;;;;7.93;64.80;93737.25;1754347;79;21042;-89
2021/10/06 07:00:59;;;;;;;9.20;4.08;;;;;;;7.95;64.13;93729.55;1762216;80;21084;-87
2021/10/06 07:03:26;;;;;;;6.47;4.03;;;;;;;8.03;63.82;93730.40;1754355;78;21572;-85
2021/10/06 07:05:52;;;;;;;9.58;4.50;;;;;;;8.16;64.40;93730.91;1785518;77;21029;-88
2021/10/06 07:08:19;;;;;;;10.08;4.33;;;;;;;8.32;64.25;93730.12;1826034;75;21484;-87
2021/10/06 07:10:45;;;;;;;10.00;4.92;;;;;;;8.47;65.36;93724.28;1830934;75;21086;-87
2021/10/06 07:13:12;;;;;;;7.12;3.62;;;;;;;8.68;64.44;93726.38;1819975;77;21817;-87
2021/10/06 07:15:40;;;;;;;5.65;3.72;;;;;;;8.85;64.23;93723.62;1771427;78;21058;-86
2021/10/06 07:18:08;;;;;;;3.85;3.47;;;;;;;9.03;62.91;93716.39;1790307;77;21078;-87
2021/10/06 07:20:34;;;;;;;8.53;5.60;;;;;;;9.19;59.94;93714.73;1821039;77;21383;-87
2021/10/06 07:23:01;;;;;;;4.92;3.55;;;;;;;9.27;59.74;93716.33;1836360;75;21108;-87
2021/10/06 07:25:28;;;;;;;5.45;3.62;;;;;;;9.30;59.30;93718.30;1793464;77;21073;-88
2021/10/06 07:27:54;;;;;;;4.22;3.65;;;;;;;9.34;61.04;93723.16;1844819;75;21049;-88
2021/10/06 07:30:21;;;;;;;6.45;4.30;;;;;;;9.47;60.31;93719.53;1786544;75;21489;-88
2021/10/06 07:32:47;;;;;;;5.20;3.72;;;;;;;9.60;60.18;93719.41;1765584;78;21042;-87
2021/10/06 07:35:14;;;;;;;7.55;4.12;;;;;;;9.74;59.32;93717.31;1775429;78;21002;-87
2021/10/06 07:37:40;;;;;;;6.55;4.15;;;;;;;9.88;59.56;93718.73;1773694;78;21101;-87
2021/10/06 07:40:08;;;;;;;5.03;4.00;;;;;;;10.11;59.06;93714.92;1767955;78;21196;-88
2021/10/06 07:42:35;;;;;;;9.30;4.00;;;;;;;10.45;58.56;93717.56;1761112;78;21397;-89
2021/10/06 07:45:02;;;;;;;6.47;3.83;;;;;;;10.81;57.30;93715.44;1780716;77;21006;-88
2021/10/06 07:47:29;;;;;;;5.15;4.12;;;;;;;10.97;56.95;93710.36;1832161;75;21158;-87
2021/10/06 07:49:56;;;;;;;6.15;4.05;;;;;;;11.05;56.68;93712.50;1826229;75;21266;-88
2021/10/06 07:52:23;;;;;;;8.48;4.17;;;;;;;11.09;57.38;93705.10;1842047;75;21683;-86
2021/10/06 07:54:49;;;;;;;6.28;4.08;;;;;;;11.20;56.59;93712.66;1853656;75;21099;-87
2021/10/06 07:57:16;;;;;;;4.80;4.15;;;;;;;11.25;55.87;93709.56;1825566;75;21084;-87
2021/10/06 07:59:42;;;;;;;4.62;3.83;;;;;;;11.30;55.65;93703.71;1781896;78;21116;-86
2021/10/06 08:02:10;;;;;;;6.30;4.25;;;;;;;11.39;56.45;93705.42;1746299;78;22131;-86
2021/10/06 08:04:37;;;;;;;6.97;3.87;;;;;;;11.54;55.58;93702.67;1788848;78;21023;-87
2021/10/06 08:07:04;;;;;;;5.50;3.47;;;;;;;11.68;55.94;93699.31;1809058;77;21089;-86
2021/10/06 08:09:31;;;;;;;7.92;3.80;;;;;;;11.80;55.59;93697.33;1815318;77;20971;-87
2021/10/06 08:11:58;;;;;;;3.55;3.25;;;;;;;11.81;54.01;93698.31;1782076;77;21085;-86
2021/10/06 08:14:24;;;;;;;5.87;3.42;;;;;;;11.78;53.99;93707.27;1782082;77;22232;-88
2021/10/06 08:16:53;;;;;;;6.95;3.80;;;;;;;11.81;54.07;93701.59;1815897;76;21264;-87
2021/10/06 08:19:19;;;;;;;6.85;3.35;;;;;;;11.83;53.84;93706.88;1814547;78;21120;-87
2021/10/06 08:21:45;;;;;;;6.40;3.70;;;;;;;11.84;53.98;93711.15;1824379;76;21268;-88
2021/10/06 08:24:12;;;;;;;6.97;4.10;;;;;;;11.86;53.05;93711.54;1776785;77;21955;-87
2021/10/06 08:26:39;;;;;;;6.92;4.20;;;;;;;11.85;53.34;93703.19;1793081;75;21105;-87
2021/10/06 08:29:06;;;;;;;4.35;3.75;;;;;;;11.87;53.20;93702.78;1850859;76;21709;-87
2021/10/06 08:31:34;;;;;;;6.80;4.15;;;;;;;11.96;54.12;93707.23;1787896;78;21126;-88
2021/10/06 08:34:01;;;;;;;8.88;3.60;;;;;;;12.06;52.83;93709.11;1797140;78;21048;-88
2021/10/06 08:36:28;;;;;;;5.22;3.92;;;;;;;12.20;53.03;93693.86;1812709;77;21027;-86
2021/10/06 08:38:55;;;;;;;4.90;3.70;;;;;;;12.33;52.81;93697.07;1824021;77;21808;-88
2021/10/06 08:41:22;;;;;;;4.03;3.37;;;;;;;12.49;50.98;93685.69;1831641;77;21261;-86
2021/10/06 08:43:50;;;;;;;6.03;3.67;;;;;;;12.60;51.83;93686.39;1831582;77;21115;-86
2021/10/06 08:46:16;;;;;;;5.50;3.72;;;;;;;12.69;49.53;93687.88;1824612;76;21081;-86
2021/10/06 08:48:42;;;;;;;6.47;4.08;;;;;;;12.64;48.61;93680.91;1824950;76;21054;-88
2021/10/06 08:51:09;;;;;;;7.62;3.50;;;;;;;12.59;48.04;93694.96;1829233;76;21372;-87
2021/10/06 08:53:37;;;;;;;5.45;3.83;;;;;;;12.63;48.38;93689.66;1824411;76;21049;-86
2021/10/06 08:56:04;;;;;;;5.00;3.55;;;;;;;12.72;47.45;93682.41;1827090;76;21025;-86
2021/10/06 08:58:30;;;;;;;7.03;3.47;;;;;;;12.73;46.72;93688.63;1795842;78;21012;-87
2021/10/06 09:00:58;;;;;;;5.95;4.42;;;;;;;12.79;47.97;93692.49;1770413;79;21970;-86
2021/10/06 09:03:32;;;;;;;5.85;4.17;;;;;;;12.94;47.64;93682.20;1789359;77;21076;-88
2021/10/06 09:06:08;;;;;;;9.67;5.13;;;;;;;13.10;45.95;93692.02;1824592;76;21146;-86
2021/10/06 09:08:36;;;;;;;4.62;3.55;;;;;;;13.18;47.62;93683.95;1764473;77;21573;-88
2021/10/06 09:13:33;;;;;;;3.87;2.80;;;;;;;13.34;46.65;93689.66;1738939;80;21596;-89
2021/10/06 09:16:01;;;;;;;3.50;3.20;;;;;;;13.46;45.82;93682.13;1787967;77;21143;-88
2021/10/06 09:18:29;;;;;;;5.08;2.80;;;;;;;13.57;46.08;93682.78;1796769;77;21018;-90
2021/10/06 09:21:01;;;;;;;3.35;2.70;;;;;;;13.68;43.71;93677.97;1781098;78;21037;-88
2021/10/06 09:23:29;;;;;;;4.80;3.55;;;;;;;13.80;42.34;93693.86;1766463;78;21276;-89
2021/10/06 09:26:01;;;;;;;4.17;3.25;;;;;;;13.83;44.40;93692.25;1734187;81;21070;-87
2021/10/06 09:28:36;;;;;;;4.40;3.30;;;;;;;13.89;44.50;93694.72;1731385;81;21594;-88
2021/10/06 09:31:15;;;;;;;5.78;3.20;;;;;;;13.94;44.06;93696.22;1763385;79;21603;-88
2021/10/06 09:33:48;;;;;;;5.83;2.77;;;;;;;14.01;43.87;93698.88;1771759;78;21011;-86
2021/10/06 09:36:35;;;;;;;9.35;3.40;;;;;;;14.05;43.96;93696.27;1737973;80;20967;-87
2021/10/06 09:39:07;;;;;;;7.10;3.25;;;;;;;14.13;43.99;93703.78;1744929;79;21041;-89
2021/10/06 09:41:45;;;;;;;3.17;2.52;;;;;;;14.24;43.07;93702.28;1800797;77;21311;-88
2021/10/06 09:46:56;;;;;;;3.77;2.60;;;;;;;14.27;40.83;93699.50;1709375;81;21025;-89
2021/10/06 09:49:29;;;;;;;4.72;2.42;;;;;;;14.28;40.57;93701.05;1767426;79;21039;-87
2021/10/06 09:52:18;;;;;;;4.92;2.72;;;;;;;14.34;40.45;93700.00;1762222;78;21041;-89
2021/10/06 09:54:51;;;;;;;5.25;3.10;;;;;;;14.43;40.51;93700.25;1802741;77;21091;-89
2021/10/06 09:57:28;;;;;;;3.52;2.80;;;;;;;14.48;40.27;93703.11;1800459;76;21034;-88
2021/10/06 10:00:18;;;;;;;2.30;2.10;;;;;;;14.44;40.33;93701.02;1822925;75;21050;-87
2021/10/06 10:02:45;;;;;;;5.45;2.15;;;;;;;14.44;41.33;93694.98;1742773;80;21049;-88
2021/10/06 10:05:16;;;;;;;5.42;3.35;;;;;;;14.46;41.53;93695.33;1745647;80;21054;-90
2021/10/06 10:07:42;;;;;;;3.25;2.50;;;;;;;14.56;40.73;93701.28;1853200;76;21069;-87
2021/10/06 10:10:11;;;;;;;3.92;2.35;;;;;;;14.65;39.35;93706.23;1840318;75;21097;-88
2021/10/06 10:12:37;;;;;;;8.65;2.85;;;;;;;14.67;39.46;93698.39;1776509;77;21048;-87
2021/10/06 10:15:05;;;;;;;5.30;2.60;;;;;;;14.70;39.47;93697.53;1768863;79;21038;-87
2021/10/06 10:17:32;;;;;;;3.77;2.27;;;;;;;14.73;40.98;93700.82;1799031;77;21069;-87
2021/10/06 10:20:02;;;;;;;2.27;2.17;;;;;;;14.81;40.39;93689.94;1828572;76;21129;-87
2021/10/06 10:22:35;;;;;;;3.45;2.45;;;;;;;14.88;38.68;93697.27;1796006;77;21007;-87
2021/10/06 10:25:25;;;;;;;5.97;2.87;;;;;;;14.91;40.11;93688.23;1811611;76;21035;-88
2021/10/06 10:28:14;;;;;;;2.85;2.40;;;;;;;14.97;39.63;93690.69;1800876;76;21263;-89
2021/10/06 10:31:03;;;;;;;5.50;2.25;;;;;;;15.00;40.06;93687.69;1783653;77;21175;-87
2021/10/06 10:33:48;;;;;;;4.42;2.87;;;;;;;15.09;38.88;93681.70;1800168;77;21115;-88
2021/10/06 10:36:39;;;;;;;3.45;2.50;;;;;;;15.12;38.30;93683.58;1839233;75;21029;-89
2021/10/06 10:39:37;;;;;;;4.58;2.62;;;;;;;15.16;39.96;93682.34;1813216;77;21320;-86
2021/10/06 10:42:04;;;;;;;3.95;3.00;;;;;;;15.26;39.17;93678.62;1817940;76;21059;-88
2021/10/06 10:44:34;;;;;;;5.40;2.80;;;;;;;15.32;38.88;93678.16;1797085;78;21010;-88
2021/10/06 10:47:04;;;;;;;11.38;2.85;;;;;;;15.31;38.21;93677.39;1813254;77;21654;-87
2021/10/06 10:49:52;;;;;;;2.70;2.50;;;;;;;15.33;39.21;93678.33;1813799;77;21013;-88
2021/10/06 10:52:20;;;;;;;3.62;2.20;;;;;;;15.40;38.83;93671.36;1756152;77;21057;-88
2021/10/06 10:54:50;;;;;;;3.87;2.10;;;;;;;15.48;39.57;93673.54;1786223;77;21007;-87
2021/10/06 10:57:25;;;;;;;6.72;2.90;;;;;;;15.58;39.40;93677.28;1814203;77;21419;-90
2021/10/06 10:59:54;;;;;;;5.60;2.52;;;;;;;15.68;39.15;93676.34;1815935;77;21769;-89
2021/10/06 11:02:33;;;;;;;4.85;2.25;;;;;;;15.77;38.05;93673.03;1771926;76;21069;-86
2021/10/06 11:05:06;;;;;;;4.67;2.30;;;;;;;15.80;38.47;93666.72;1764681;77;21378;-86
2021/10/06 11:07:51;;;;;;;3.27;2.10;;;;;;;15.83;37.34;93664.48;1798940;77;21598;-87
2021/10/06 11:10:28;;;;;;;6.33;3.60;;;;;;;15.84;37.43;93666.64;1803369;78;21081;-86
2021/10/06 11:13:03;;;;;;;2.95;2.42;;;;;;;15.86;37.62;93665.00;1799895;77;21484;-89
2021/10/06 11:15:26;;;;;;;4.12;2.22;;;;;;;15.91;37.37;93669.22;1785887;78;21718;-86
2021/10/06 11:18:21;;;;;;;4.42;2.05;;;;;;;15.92;36.64;93663.33;1737287;79;21983;-85
2021/10/06 11:20:52;;;;;;;2.10;1.87;;;;;;;15.92;36.62;93657.08;1742863;79;21017;-87
2021/10/06 11:23:39;;;;;;;2.92;2.20;;;;;;;15.93;36.61;93646.27;1727504;80;21097;-86
2021/10/06 11:26:13;;;;;;;2.60;2.35;;;;;;;15.96;37.38;93652.28;1783970;78;21305;-89
2021/10/06 11:28:43;;;;;;;5.28;2.70;;;;;;;16.03;37.89;93656.25;1795096;76;21030;-87
2021/10/06 11:31:10;;;;;;;3.08;1.95;;;;;;;16.10;37.63;93660.22;1807366;77;21064;-87
2021/10/06 11:33:38;;;;;;;3.90;2.55;;;;;;;16.18;37.67;93663.59;1813736;77;21647;-87
2021/10/06 11:36:11;;;;;;;3.35;2.00;;;;;;;16.23;36.85;93654.23;1798123;77;21117;-86
2021/10/06 11:38:39;;;;;;;2.20;2.00;;;;;;;16.25;36.09;93655.20;1809403;77;21140;-87
2021/10/06 11:41:06;;;;;;;2.27;2.08;;;;;;;16.27;36.51;93654.94;1772825;77;21047;-87
2021/10/06 11:43:48;;;;;;;2.85;2.12;;;;;;;16.31;35.87;93658.20;1763776;78;21086;-85
2021/10/06 11:46:18;;;;;;;3.02;1.98;;;;;;;16.29;36.88;93648.27;1804905;76;21429;-85
2021/10/06 11:48:48;;;;;;;4.83;1.92;;;;;;;16.32;36.60;93647.39;1822307;76;21120;-86
2021/10/06 11:51:15;;;;;;;2.80;1.82;;;;;;;16.35;37.10;93648.69;1856999;76;21384;-86
2021/10/06 11:53:47;;;;;;;4.65;2.72;;;;;;;16.41;36.84;93646.99;1766738;79;21163;-85